createdAt,value
2018-11-02T00:00:40.913Z,98569.84
2018-11-02T00:03:09.756Z,98571.72
2018-11-02T00:05:38.117Z,98571.45
2018-11-02T00:08:06.986Z,98574.59
2018-11-02T00:10:35.269Z,98584.75
2018-11-02T00:13:03.593Z,98589.14
2018-11-02T00:15:31.944Z,98590.05
2018-11-02T00:18:00.317Z,98598.89
2018-11-02T00:20:28.976Z,98602.44
2018-11-02T00:22:57.294Z,98604.30
2018-11-02T00:25:25.767Z,98599.53
2018-11-02T00:27:54.096Z,98592.50
2018-11-02T00:30:23.553Z,98594.64
2018-11-02T00:32:51.886Z,98592.92
2018-11-02T00:35:20.300Z,98597.76
2018-11-02T00:37:48.630Z,98591.11
2018-11-02T00:40:16.990Z,98598.54
2018-11-02T00:42:45.285Z,98596.37
2018-11-02T00:45:13.621Z,98602.48
2018-11-02T00:47:42.274Z,98604.19
2018-11-02T00:50:12.057Z,98601.48
2018-11-02T00:52:40.449Z,98602.66
2018-11-02T00:55:09.317Z,98597.16
2018-11-02T00:57:38.869Z,98603.43
2018-11-02T01:00:09.637Z,98594.11
2018-11-02T01:02:38.200Z,98602.74
2018-11-02T01:05:07.133Z,98596.56
2018-11-02T01:07:35.733Z,98589.02
2018-11-02T01:10:04.302Z,98589.47
2018-11-02T01:12:32.738Z,98590.84
2018-11-02T01:15:01.106Z,98593.94
2018-11-02T01:17:29.449Z,98587.48
2018-11-02T01:19:57.873Z,98584.95
2018-11-02T01:22:26.263Z,98584.55
2018-11-02T01:24:54.651Z,98589.20
2018-11-02T01:27:22.962Z,98584.00
2018-11-02T01:29:51.274Z,98584.65
2018-11-02T01:32:19.623Z,98583.44
2018-11-02T01:34:47.930Z,98587.06
2018-11-02T01:37:16.425Z,98590.64
2018-11-02T01:39:44.919Z,98590.61
2018-11-02T01:42:13.341Z,98594.59
2018-11-02T01:44:41.722Z,98596.41
2018-11-02T01:47:10.039Z,98605.64
2018-11-02T01:49:39.560Z,98610.16
2018-11-02T01:52:08.089Z,98615.04
2018-11-02T01:54:36.493Z,98613.23
2018-11-02T01:57:04.917Z,98610.61
2018-11-02T01:59:33.512Z,98613.31
2018-11-02T02:02:01.934Z,98610.69
2018-11-02T02:04:30.281Z,98607.20
2018-11-02T02:06:58.644Z,98604.61
2018-11-02T02:09:27.004Z,98598.48
2018-11-02T02:11:55.332Z,98604.20
2018-11-02T02:14:23.742Z,98605.55
2018-11-02T02:16:52.546Z,98610.83
2018-11-02T02:19:20.929Z,98609.48
2018-11-02T02:21:49.244Z,98612.59
2018-11-02T02:24:17.579Z,98613.53
2018-11-02T02:26:45.853Z,98618.37
2018-11-02T02:29:15.531Z,98622.78
2018-11-02T02:31:43.843Z,98618.33
2018-11-02T02:34:12.182Z,98613.49
2018-11-02T02:36:40.501Z,98617.05
2018-11-02T02:39:09.844Z,98619.67
2018-11-02T02:41:38.765Z,98612.66
2018-11-02T02:44:07.734Z,98624.00
2018-11-02T02:46:36.225Z,98624.48
2018-11-02T02:49:05.025Z,98627.97
2018-11-02T02:51:33.323Z,98630.63
2018-11-02T02:54:01.723Z,98630.66
2018-11-02T02:56:30.083Z,98628.06
2018-11-02T02:58:58.420Z,98628.13
2018-11-02T03:01:26.754Z,98628.13
2018-11-02T03:03:55.125Z,98635.55
2018-11-02T03:06:23.397Z,98638.27
2018-11-02T03:08:51.782Z,98646.14
2018-11-02T03:11:20.213Z,98649.66
2018-11-02T03:13:48.593Z,98656.19
2018-11-02T03:16:16.917Z,98657.89
2018-11-02T03:18:45.275Z,98663.62
2018-11-02T03:21:13.592Z,98665.80
2018-11-02T03:23:41.985Z,98667.56
2018-11-02T03:26:10.352Z,98662.31
2018-11-02T03:28:38.785Z,98655.33
2018-11-02T03:31:07.119Z,98653.13
2018-11-02T03:33:35.569Z,98654.91
2018-11-02T03:36:04.006Z,98655.75
2018-11-02T03:38:32.389Z,98654.91
2018-11-02T03:41:00.719Z,98651.84
2018-11-02T03:43:29.064Z,98649.63
2018-11-02T03:45:57.506Z,98652.34
2018-11-02T03:48:25.811Z,98653.27
2018-11-02T03:50:54.195Z,98662.44
2018-11-02T03:53:22.519Z,98668.97
2018-11-02T03:55:50.961Z,98680.83
2018-11-02T03:58:19.328Z,98701.84
2018-11-02T04:00:47.662Z,98709.30
2018-11-02T04:03:16.035Z,98718.04
2018-11-02T04:05:44.410Z,98721.52
2018-11-02T04:08:12.725Z,98723.28
2018-11-02T04:10:41.223Z,98725.89
2018-11-02T04:13:09.604Z,98730.28
2018-11-02T04:15:37.969Z,98726.77
2018-11-02T04:18:06.801Z,98724.56
2018-11-02T04:20:35.114Z,98731.58
2018-11-02T04:23:03.467Z,98736.37
2018-11-02T04:25:31.806Z,98747.72
2018-11-02T04:28:00.122Z,98738.52
2018-11-02T04:30:28.496Z,98736.33
2018-11-02T04:32:56.749Z,98733.73
2018-11-02T04:35:25.070Z,98733.28
2018-11-02T04:37:53.414Z,98740.33
2018-11-02T04:40:21.880Z,98741.66
2018-11-02T04:42:50.266Z,98740.39
2018-11-02T04:45:22.857Z,98750.45
2018-11-02T04:47:51.174Z,98748.70
2018-11-02T04:50:19.563Z,98751.79
2018-11-02T04:52:47.879Z,98747.45
2018-11-02T04:55:16.434Z,98753.55
2018-11-02T04:57:44.808Z,98751.39
2018-11-02T05:00:13.140Z,98761.88
2018-11-02T05:02:41.486Z,98758.39
2018-11-02T05:05:09.825Z,98758.43
2018-11-02T05:07:38.129Z,98767.17
2018-11-02T05:10:07.334Z,98778.12
2018-11-02T05:12:35.670Z,98771.98
2018-11-02T05:15:04.139Z,98776.79
2018-11-02T05:17:32.601Z,98783.78
2018-11-02T05:20:00.930Z,98781.61
2018-11-02T05:22:29.440Z,98793.39
2018-11-02T05:24:57.989Z,98792.97
2018-11-02T05:27:26.316Z,98796.02
2018-11-02T05:29:54.599Z,98789.02
2018-11-02T05:32:23.108Z,98788.58
2018-11-02T05:34:51.431Z,98779.36
2018-11-02T05:37:19.810Z,98784.60
2018-11-02T05:39:48.148Z,98789.36
2018-11-02T05:42:16.654Z,98798.55
2018-11-02T05:44:44.961Z,98793.30
2018-11-02T05:47:13.500Z,98790.69
2018-11-02T05:49:41.855Z,98787.69
2018-11-02T05:52:10.200Z,98794.66
2018-11-02T05:54:38.713Z,98795.55
2018-11-02T05:57:08.003Z,98803.42
2018-11-02T05:59:36.295Z,98801.69
2018-11-02T06:02:04.674Z,98812.63
2018-11-02T06:04:33.051Z,98816.98
2018-11-02T06:07:01.484Z,98816.12
2018-11-02T06:09:29.862Z,98820.06
2018-11-02T06:11:58.268Z,98824.88
2018-11-02T06:14:26.824Z,98833.18
2018-11-02T06:16:55.256Z,98834.91
2018-11-02T06:19:23.703Z,98840.59
2018-11-02T06:21:52.068Z,98843.61
2018-11-02T06:24:20.497Z,98846.23
2018-11-02T06:26:48.760Z,98846.70
2018-11-02T06:29:17.087Z,98848.45
2018-11-02T06:31:45.458Z,98856.28
2018-11-02T06:34:14.247Z,98867.22
2018-11-02T06:36:42.625Z,98876.83
2018-11-02T06:39:11.269Z,98874.20
2018-11-02T06:41:39.614Z,98868.05
2018-11-02T06:44:08.011Z,98881.14
2018-11-02T06:46:36.400Z,98883.74
2018-11-02T06:49:04.871Z,98884.61
2018-11-02T06:51:33.297Z,98888.08
2018-11-02T06:54:01.663Z,98895.50
2018-11-02T06:56:30.110Z,98905.54
2018-11-02T06:59:01.401Z,98905.54
2018-11-02T07:01:29.708Z,98907.22
2018-11-02T07:03:59.227Z,98914.62
2018-11-02T07:06:27.580Z,98916.39
2018-11-02T07:08:55.947Z,98916.38
2018-11-02T07:11:24.268Z,98909.76
2018-11-02T07:13:52.709Z,98909.70
2018-11-02T07:16:20.996Z,98910.05
2018-11-02T07:18:49.331Z,98909.65
2018-11-02T07:21:18.441Z,98913.57
2018-11-02T07:23:47.717Z,98911.79
2018-11-02T07:26:16.024Z,98929.27
2018-11-02T07:28:45.670Z,98928.41
2018-11-02T07:31:14.570Z,98931.42
2018-11-02T07:33:43.213Z,98927.56
2018-11-02T07:36:12.787Z,98935.50
2018-11-02T07:38:41.110Z,98941.58
2018-11-02T07:41:09.532Z,98938.42
2018-11-02T07:43:37.835Z,98943.69
2018-11-02T07:46:06.181Z,98951.06
2018-11-02T07:48:34.666Z,98946.06
2018-11-02T07:51:03.008Z,98944.53
2018-11-02T07:53:31.341Z,98947.41
2018-11-02T07:55:59.726Z,98952.04
2018-11-02T07:58:28.101Z,98960.23
2018-11-02T08:00:56.480Z,98952.08
2018-11-02T08:03:24.890Z,98956.16
2018-11-02T08:05:53.279Z,98952.88
2018-11-02T08:08:22.114Z,98958.89
2018-11-02T08:10:50.563Z,98966.28
2018-11-02T08:13:19.071Z,98971.44
2018-11-02T08:15:47.512Z,98971.34
2018-11-02T08:18:15.857Z,98977.36
2018-11-02T08:20:44.176Z,98983.53
2018-11-02T08:23:12.573Z,98980.13
2018-11-02T08:25:41.002Z,98985.20
2018-11-02T08:28:09.352Z,98980.23
2018-11-02T08:30:37.873Z,98980.55
2018-11-02T08:33:06.428Z,98965.97
2018-11-02T08:35:34.749Z,98971.94
2018-11-02T08:38:03.092Z,98973.80
2018-11-02T08:40:31.403Z,98974.93
2018-11-02T08:42:59.791Z,98977.31
2018-11-02T08:45:28.163Z,98971.20
2018-11-02T08:47:56.506Z,98966.59
2018-11-02T08:50:24.815Z,98979.94
2018-11-02T08:52:53.168Z,98985.12
2018-11-02T08:55:22.372Z,98985.75
2018-11-02T08:57:50.759Z,98993.67
2018-11-02T09:00:19.169Z,98982.35
2018-11-02T09:02:47.439Z,98985.39
2018-11-02T09:05:15.730Z,98982.16
2018-11-02T09:07:44.184Z,98988.48
2018-11-02T09:10:13.024Z,98990.67
2018-11-02T09:12:41.385Z,98983.29
2018-11-02T09:15:09.704Z,98977.05
2018-11-02T09:17:38.214Z,98977.83
2018-11-02T09:20:07.260Z,98983.44
2018-11-02T09:22:35.939Z,98976.90
2018-11-02T09:25:04.341Z,98970.52
2018-11-02T09:27:32.896Z,98973.58
2018-11-02T09:30:01.228Z,98970.20
2018-11-02T09:32:29.787Z,98962.30
2018-11-02T09:34:58.329Z,98967.22
2018-11-02T09:37:26.755Z,98958.34
2018-11-02T09:39:55.261Z,98966.77
2018-11-02T09:42:23.605Z,98971.48
2018-11-02T09:44:52.111Z,98982.20
2018-11-02T09:47:20.902Z,98976.56
2018-11-02T09:49:49.221Z,98978.89
2018-11-02T09:52:17.568Z,98977.32
2018-11-02T09:54:45.901Z,98990.53
2018-11-02T09:57:14.417Z,98996.70
2018-11-02T09:59:42.836Z,98994.87
2018-11-02T10:02:11.512Z,98993.36
2018-11-02T10:04:39.797Z,98993.03
2018-11-02T10:07:08.157Z,99001.94
2018-11-02T10:09:36.657Z,99003.02
2018-11-02T10:12:06.016Z,99002.66
2018-11-02T10:14:34.377Z,98998.18
2018-11-02T10:17:02.791Z,98995.97
2018-11-02T10:19:31.175Z,98995.27
2018-11-02T10:21:59.637Z,98995.37
2018-11-02T10:24:28.004Z,98981.16
2018-11-02T10:26:56.496Z,98978.02
2018-11-02T10:29:24.876Z,98966.89
2018-11-02T10:31:53.461Z,98961.57
2018-11-02T10:34:21.833Z,98964.18
2018-11-02T10:36:50.269Z,98961.55
2018-11-02T10:39:18.748Z,98956.48
2018-11-02T10:41:52.197Z,98958.40
2018-11-02T10:44:30.648Z,98959.76
2018-11-02T10:46:58.961Z,98957.55
2018-11-02T10:49:27.397Z,98963.08
2018-11-02T10:51:55.856Z,98959.83
2018-11-02T10:54:24.217Z,98954.94
2018-11-02T10:56:52.531Z,98961.39
2018-11-02T10:59:20.975Z,98964.53
2018-11-02T11:01:51.089Z,98968.63
2018-11-02T11:04:20.149Z,98970.92
2018-11-02T11:06:48.640Z,98963.34
2018-11-02T11:09:17.106Z,98962.06
2018-11-02T11:11:45.731Z,98971.92
2018-11-02T11:14:13.884Z,98974.80
2018-11-02T11:16:42.222Z,98971.97
2018-11-02T11:19:11.175Z,98971.07
2018-11-02T11:21:40.819Z,98967.04
2018-11-02T11:24:09.268Z,98970.59
2018-11-02T11:26:38.263Z,98966.41
2018-11-02T11:29:07.129Z,98968.60
2018-11-02T11:31:36.288Z,98970.33
2018-11-02T11:34:05.480Z,98975.77
2018-11-02T11:36:33.775Z,98965.61
2018-11-02T11:39:02.377Z,98970.08
2018-11-02T11:41:30.858Z,98968.46
2018-11-02T11:43:59.284Z,98964.58
2018-11-02T11:46:27.617Z,98964.05
2018-11-02T11:48:56.705Z,98964.11
2018-11-02T11:51:24.854Z,98960.38
2018-11-02T11:53:53.409Z,98965.25
2018-11-02T11:56:21.800Z,98973.69
2018-11-02T11:58:50.139Z,98984.50
2018-11-02T12:01:18.479Z,98991.35
2018-11-02T12:03:46.867Z,98992.50
2018-11-02T12:06:15.345Z,98992.83
2018-11-02T12:08:43.716Z,98986.53
2018-11-02T12:11:12.028Z,98983.55
2018-11-02T12:13:40.929Z,98981.67
2018-11-02T12:16:09.308Z,98984.75
2018-11-02T12:18:37.690Z,98985.45
2018-11-02T12:21:06.873Z,98981.67
2018-11-02T12:23:35.620Z,98981.70
2018-11-02T12:26:04.751Z,98989.01
2018-11-02T12:28:33.259Z,98985.70
2018-11-02T12:31:01.563Z,98988.94
2018-11-02T12:33:29.915Z,98993.39
2018-11-02T12:35:58.230Z,98999.58
2018-11-02T12:38:26.642Z,98994.72
2018-11-02T12:40:55.016Z,98991.08
2018-11-02T12:43:23.431Z,98991.33
2018-11-02T12:46:13.594Z,98990.96
2018-11-02T12:48:43.586Z,98993.88
2018-11-02T12:51:11.751Z,98986.31
2018-11-02T12:53:40.102Z,98987.09
2018-11-02T12:56:08.469Z,98981.52
2018-11-02T12:58:36.870Z,98985.92
2018-11-02T13:01:05.256Z,98995.42
2018-11-02T13:03:33.566Z,98989.42
2018-11-02T13:06:01.945Z,98981.22
2018-11-02T13:08:30.250Z,98981.63
2018-11-02T13:10:58.596Z,98988.34
2018-11-02T13:13:26.895Z,98986.68
2018-11-02T13:15:55.338Z,98987.07
2018-11-02T13:18:23.563Z,98989.67
2018-11-02T13:20:52.126Z,98980.48
2018-11-02T13:23:20.654Z,98972.13
2018-11-02T13:25:49.075Z,98981.41
2018-11-02T13:28:17.493Z,98985.20
2018-11-02T13:30:45.780Z,98984.55
2018-11-02T13:33:14.099Z,98995.15
2018-11-02T13:35:42.524Z,98992.55
2018-11-02T13:38:10.878Z,99005.17
2018-11-02T13:40:39.373Z,99015.38
2018-11-02T13:43:07.850Z,99015.20
2018-11-02T13:45:36.123Z,99015.42
2018-11-02T13:48:04.481Z,99017.19
2018-11-02T13:50:32.857Z,99005.38
2018-11-02T13:53:01.090Z,99003.09
2018-11-02T13:55:29.401Z,98998.94
2018-11-02T13:57:57.920Z,99001.25
2018-11-02T14:00:26.766Z,99014.79
2018-11-02T14:02:55.168Z,99025.31
2018-11-02T14:05:23.553Z,99020.91
2018-11-02T14:07:52.209Z,99023.93
2018-11-02T14:10:20.573Z,99019.09
2018-11-02T14:12:48.911Z,99021.25
2018-11-02T14:15:17.520Z,99018.52
2018-11-02T14:17:46.095Z,99019.84
2018-11-02T14:20:15.013Z,99018.83
2018-11-02T14:22:43.402Z,99019.66
2018-11-02T14:25:14.105Z,99012.75
2018-11-02T14:27:42.457Z,99012.57
2018-11-02T14:30:12.812Z,99016.89
2018-11-02T14:32:41.189Z,99010.72
2018-11-02T14:35:09.514Z,99014.49
2018-11-02T14:37:38.127Z,99011.88
2018-11-02T14:40:07.861Z,99014.12
2018-11-02T14:42:36.732Z,99023.03
2018-11-02T14:45:05.917Z,99023.06
2018-11-02T14:47:34.271Z,99016.14
2018-11-02T14:50:02.712Z,99026.84
2018-11-02T14:52:31.155Z,99028.77
2018-11-02T14:54:59.513Z,99031.51
2018-11-02T14:57:27.809Z,99040.76
2018-11-02T14:59:56.288Z,99048.25
2018-11-02T15:02:24.455Z,99051.39
2018-11-02T15:04:52.916Z,99046.58
2018-11-02T15:07:21.456Z,99044.02
2018-11-02T15:09:49.760Z,99042.28
2018-11-02T15:12:18.151Z,99044.47
2018-11-02T15:14:46.692Z,99040.03
2018-11-02T15:17:15.481Z,99043.55
2018-11-02T15:19:44.445Z,99047.34
2018-11-02T15:22:12.823Z,99049.09
2018-11-02T15:24:41.188Z,99055.46
2018-11-02T15:27:09.476Z,99058.66
2018-11-02T15:29:37.862Z,99072.73
2018-11-02T15:32:06.364Z,99087.25
2018-11-02T15:34:34.691Z,99101.23
2018-11-02T15:37:03.013Z,99100.69
2018-11-02T15:39:31.330Z,99101.50
2018-11-02T15:41:59.687Z,99101.88
2018-11-02T15:44:28.092Z,99105.78
2018-11-02T15:46:56.452Z,99110.61
2018-11-02T15:49:24.847Z,99108.41
2018-11-02T15:51:53.388Z,99103.81
2018-11-02T15:54:21.748Z,99105.60
2018-11-02T15:56:50.142Z,99111.93
2018-11-02T15:59:18.493Z,99121.86
2018-11-02T16:01:46.859Z,99128.10
2018-11-02T16:04:15.130Z,99124.78
2018-11-02T16:06:43.520Z,99122.95
2018-11-02T16:09:14.199Z,99127.45
2018-11-02T16:11:42.676Z,99132.81
2018-11-02T16:14:11.295Z,99135.98
2018-11-02T16:16:39.568Z,99137.38
2018-11-02T16:19:07.945Z,99136.25
2018-11-02T16:21:36.819Z,99138.63
2018-11-02T16:24:05.774Z,99142.26
2018-11-02T16:26:34.083Z,99151.66
2018-11-02T16:29:02.455Z,99157.02
2018-11-02T16:31:30.787Z,99155.47
2018-11-02T16:33:59.187Z,99161.67
2018-11-02T16:36:27.597Z,99168.34
2018-11-02T16:38:56.156Z,99170.98
2018-11-02T16:41:24.630Z,99167.02
2018-11-02T16:43:53.112Z,99169.25
2018-11-02T16:46:21.448Z,99173.62
2018-11-02T16:48:49.994Z,99187.40
2018-11-02T16:51:18.498Z,99193.60
2018-11-02T16:53:46.961Z,99202.90
2018-11-02T16:56:15.651Z,99200.25
2018-11-02T16:58:44.003Z,99199.30
2018-11-02T17:01:12.321Z,99208.53
2018-11-02T17:03:40.878Z,99209.85
2018-11-02T17:06:09.272Z,99218.55
2018-11-02T17:08:37.630Z,99224.72
2018-11-02T17:11:06.023Z,99222.55
2018-11-02T17:13:34.303Z,99230.53
2018-11-02T17:16:02.628Z,99235.81
2018-11-02T17:18:31.011Z,99240.22
2018-11-02T17:20:59.312Z,99248.11
2018-11-02T17:23:27.675Z,99245.00
2018-11-02T17:25:56.302Z,99242.77
2018-11-02T17:28:24.683Z,99242.72
2018-11-02T17:30:53.261Z,99241.44
2018-11-02T17:33:21.616Z,99244.09
2018-11-02T17:35:49.964Z,99244.14
2018-11-02T17:38:18.373Z,99248.20
2018-11-02T17:40:46.728Z,99248.70
2018-11-02T17:43:15.002Z,99259.32
2018-11-02T17:45:43.453Z,99264.56
2018-11-02T17:48:11.785Z,99259.27
2018-11-02T17:50:40.157Z,99258.31
2018-11-02T17:53:08.522Z,99258.36
2018-11-02T17:55:36.820Z,99253.98
2018-11-02T17:58:05.144Z,99252.73
2018-11-02T18:00:33.469Z,99260.29
2018-11-02T18:03:01.882Z,99262.14
2018-11-02T18:05:30.235Z,99267.48
2018-11-02T18:07:58.634Z,99277.17
2018-11-02T18:10:26.971Z,99278.03
2018-11-02T18:12:55.270Z,99284.13
2018-11-02T18:15:23.619Z,99286.87
2018-11-02T18:17:51.974Z,99282.54
2018-11-02T18:20:20.653Z,99290.91
2018-11-02T18:22:48.985Z,99292.68
2018-11-02T18:25:17.373Z,99294.50
2018-11-02T18:27:45.676Z,99297.55
2018-11-02T18:30:14.025Z,99297.55
2018-11-02T18:32:42.384Z,99299.73
2018-11-02T18:35:11.202Z,99298.83
2018-11-02T18:37:39.600Z,99303.61
2018-11-02T18:40:09.625Z,99308.94
2018-11-02T18:42:38.414Z,99309.34
2018-11-02T18:45:09.215Z,99311.04
2018-11-02T18:47:44.027Z,99304.48
2018-11-02T18:50:13.450Z,99308.39
2018-11-02T18:52:41.751Z,99313.23
2018-11-02T18:55:10.127Z,99311.00
2018-11-02T18:57:38.910Z,99314.09
2018-11-02T19:00:08.336Z,99311.49
2018-11-02T19:02:36.675Z,99311.98
2018-11-02T19:05:06.690Z,99311.91
2018-11-02T19:07:35.035Z,99314.13
2018-11-02T19:10:03.412Z,99322.13
2018-11-02T19:12:31.834Z,99323.83
2018-11-02T19:15:00.189Z,99321.19
2018-11-02T19:17:28.547Z,99316.36
2018-11-02T19:19:57.101Z,99308.07
2018-11-02T19:22:25.377Z,99317.77
2018-11-02T19:24:53.669Z,99312.44
2018-11-02T19:27:21.991Z,99312.86
2018-11-02T19:29:51.359Z,99314.63
2018-11-02T19:32:19.681Z,99311.53
2018-11-02T19:34:48.290Z,99317.72
2018-11-02T19:37:16.406Z,99319.05
2018-11-02T19:39:44.737Z,99326.59
2018-11-02T19:42:13.032Z,99335.38
2018-11-02T19:44:41.291Z,99338.42
2018-11-02T19:47:09.708Z,99342.02
2018-11-02T19:49:38.064Z,99344.80
2018-11-02T19:52:06.433Z,99340.84
2018-11-02T19:54:35.679Z,99339.14
2018-11-02T19:57:04.054Z,99345.77
2018-11-02T19:59:32.394Z,99357.22
2018-11-02T20:02:00.690Z,99358.13
2018-11-02T20:04:29.018Z,99367.39
2018-11-02T20:06:57.521Z,99371.83
2018-11-02T20:09:25.930Z,99374.94
2018-11-02T20:11:54.292Z,99375.36
2018-11-02T20:14:22.643Z,99377.97
2018-11-02T20:16:50.997Z,99386.84
2018-11-02T20:19:19.350Z,99379.38
2018-11-02T20:21:47.655Z,99377.25
2018-11-02T20:24:15.991Z,99382.13
2018-11-02T20:26:44.345Z,99385.66
2018-11-02T20:29:12.657Z,99379.95
2018-11-02T20:31:41.069Z,99381.72
2018-11-02T20:34:09.468Z,99384.85
2018-11-02T20:36:37.793Z,99384.45
2018-11-02T20:39:09.397Z,99385.81
2018-11-02T20:41:37.682Z,99381.85
2018-11-02T20:44:06.142Z,99386.27
2018-11-02T20:46:35.020Z,99385.40
2018-11-02T20:49:03.436Z,99380.17
2018-11-02T20:51:31.795Z,99384.55
2018-11-02T20:54:00.147Z,99385.45
2018-11-02T20:56:28.490Z,99382.41
2018-11-02T20:58:56.942Z,99378.48
2018-11-02T21:01:25.306Z,99391.23
2018-11-02T21:03:53.651Z,99395.61
2018-11-02T21:06:22.150Z,99398.27
2018-11-02T21:08:50.553Z,99392.61
2018-11-02T21:11:18.893Z,99394.81
2018-11-02T21:13:47.242Z,99400.56
2018-11-02T21:16:15.540Z,99409.81
2018-11-02T21:18:44.199Z,99408.94
2018-11-02T21:21:12.675Z,99414.64
2018-11-02T21:23:40.892Z,99415.51
2018-11-02T21:26:09.227Z,99415.09
2018-11-02T21:28:37.549Z,99422.14
2018-11-02T21:31:06.579Z,99422.98
2018-11-02T21:33:35.047Z,99422.11
2018-11-02T21:36:03.351Z,99429.15
2018-11-02T21:38:31.879Z,99424.75
2018-11-02T21:41:00.651Z,99429.59
2018-11-02T21:43:29.024Z,99433.50
2018-11-02T21:45:57.382Z,99432.63
2018-11-02T21:48:25.705Z,99434.84
2018-11-02T21:50:54.033Z,99436.14
2018-11-02T21:53:22.376Z,99436.15
2018-11-02T21:55:50.721Z,99435.27
2018-11-02T21:58:19.060Z,99441.41
2018-11-02T22:00:47.361Z,99438.32
2018-11-02T22:03:15.717Z,99440.53
2018-11-02T22:05:44.118Z,99447.53
2018-11-02T22:08:12.472Z,99444.89
2018-11-02T22:10:40.853Z,99439.66
2018-11-02T22:13:09.177Z,99444.46
2018-11-02T22:15:37.981Z,99448.41
2018-11-02T22:18:06.346Z,99452.35
2018-11-02T22:20:34.688Z,99452.77
2018-11-02T22:23:03.026Z,99450.55
2018-11-02T22:25:31.360Z,99443.52
2018-11-02T22:27:59.949Z,99446.99
2018-11-02T22:30:28.417Z,99452.25
2018-11-02T22:32:56.704Z,99446.98
2018-11-02T22:35:25.104Z,99455.77
2018-11-02T22:37:53.465Z,99457.58
2018-11-02T22:40:21.905Z,99454.11
2018-11-02T22:42:50.458Z,99454.98
2018-11-02T22:45:18.793Z,99459.35
2018-11-02T22:47:52.357Z,99466.39
2018-11-02T22:50:20.664Z,99465.94
2018-11-02T22:52:49.029Z,99464.62
2018-11-02T22:55:17.521Z,99464.18
2018-11-02T22:57:45.881Z,99467.25
2018-11-02T23:00:17.379Z,99469.00
2018-11-02T23:02:46.548Z,99472.05
2018-11-02T23:05:14.868Z,99473.38
2018-11-02T23:07:43.594Z,99473.40
2018-11-02T23:10:12.085Z,99472.53
2018-11-02T23:12:41.067Z,99471.67
2018-11-02T23:15:10.249Z,99470.80
2018-11-02T23:17:38.611Z,99478.69
2018-11-02T23:20:08.879Z,99479.14
2018-11-02T23:22:37.260Z,99476.50
2018-11-02T23:25:06.749Z,99462.89
2018-11-02T23:27:35.169Z,99454.57
2018-11-02T23:30:03.625Z,99448.88
2018-11-02T23:32:31.877Z,99446.69
2018-11-02T23:35:00.190Z,99446.22
2018-11-02T23:37:28.523Z,99443.16
2018-11-02T23:39:56.840Z,99450.63
2018-11-02T23:42:25.544Z,99452.80
2018-11-02T23:44:53.964Z,99453.70
2018-11-02T23:47:22.287Z,99460.28
2018-11-02T23:49:50.628Z,99461.59
2018-11-02T23:52:18.986Z,99469.46
2018-11-02T23:54:47.341Z,99459.39
2018-11-02T23:57:15.669Z,99462.91
2018-11-02T23:59:44.043Z,99470.34
